Decoded Metar for LHPA (PAPA in HUNGARY) (IATA:N/A) | Meteo·Mobile Aviation Weather
aviador You're here:

LHPA Decoded Metar

PAPA in HUNGARY
Report Time2019-12-12 20:15:00
UTC Time2019-12-12 20:54:54
Flight Rules lifr LIFR
WindCalm
Visibility0400 m
Phenomena:Light Rain
Fog
Clouds:Overcast 002 Hf
Ceiling200 ft
Temp01°C (ISA -13)
Dew Point01°C (100% RH)
AAT-0.8°C
QNH1003 hPa
Density Alt-666 ft
Elevation486 ft
Report Wrong Elevation
Raw Report
METAR LHPA 122015Z 00000KT 0400 R34/P1500 -RA FG OVC002 01/01 Q1003
NOSIG RMK RED=

Extra information for LHPA:More info

Metar Taf Metar & Taf Last 4 Metars F.Rules Stats Wind Profile Meteogram Temp Stats Airport Information Weather charts Add Link Nearby VenuesMetar ALERT Operation Metar Decoded Social comments